createdAt,value
2023-03-17T00:01:04.569Z,100.00
2023-03-17T00:06:16.210Z,100.00
2023-03-17T00:11:21.426Z,100.00
2023-03-17T00:16:27.255Z,100.00
2023-03-17T00:21:32.752Z,100.00
2023-03-17T00:26:36.259Z,100.00
2023-03-17T00:31:40.301Z,100.00
2023-03-17T00:36:46.160Z,100.00
2023-03-17T00:41:49.531Z,100.00
2023-03-17T00:46:54.202Z,100.00
2023-03-17T00:51:57.075Z,100.00
2023-03-17T00:57:00.070Z,100.00
2023-03-17T01:02:02.893Z,100.00
2023-03-17T01:07:06.336Z,100.00
2023-03-17T01:12:14.215Z,100.00
2023-03-17T01:17:18.420Z,100.00
2023-03-17T01:22:21.411Z,100.00
2023-03-17T01:27:25.498Z,100.00
2023-03-17T01:32:28.581Z,100.00
2023-03-17T01:37:31.579Z,100.00
2023-03-17T01:42:34.797Z,100.00
2023-03-17T01:47:38.628Z,100.00
2023-03-17T01:52:41.831Z,100.00
2023-03-17T01:57:53.519Z,100.00
2023-03-17T02:02:56.932Z,100.00
2023-03-17T02:08:00.192Z,100.00
2023-03-17T02:13:05.792Z,100.00
2023-03-17T02:18:11.606Z,100.00
2023-03-17T02:23:23.926Z,100.00
2023-03-17T02:28:31.234Z,100.00
2023-03-17T02:33:33.970Z,100.00
2023-03-17T02:38:37.540Z,100.00
2023-03-17T02:43:41.600Z,100.00
2023-03-17T02:48:46.337Z,100.00
2023-03-17T02:53:49.198Z,100.00
2023-03-17T02:58:52.770Z,100.00
2023-03-17T03:03:56.273Z,100.00
2023-03-17T03:14:35.781Z,100.00
2023-03-17T03:19:40.289Z,100.00
2023-03-17T03:24:43.215Z,100.00
2023-03-17T03:29:46.507Z,100.00
2023-03-17T03:34:49.396Z,100.00
2023-03-17T03:39:52.424Z,100.00
2023-03-17T03:44:55.477Z,100.00
2023-03-17T03:49:58.401Z,100.00
2023-03-17T03:55:01.349Z,100.00
2023-03-17T04:00:05.927Z,100.00
2023-03-17T04:05:09.642Z,100.00
2023-03-17T04:10:13.145Z,100.00
2023-03-17T04:15:18.591Z,100.00
2023-03-17T04:20:21.968Z,100.00
2023-03-17T04:25:24.900Z,100.00
2023-03-17T04:30:27.877Z,100.00
2023-03-17T04:35:30.957Z,100.00
2023-03-17T04:40:33.920Z,100.00
2023-03-17T04:45:37.465Z,100.00
2023-03-17T04:50:40.554Z,100.00
2023-03-17T04:55:43.577Z,100.00
2023-03-17T05:00:47.012Z,100.00
2023-03-17T05:05:50.896Z,100.00
2023-03-17T05:10:55.136Z,100.00
2023-03-17T05:15:59.707Z,100.00
2023-03-17T05:21:03.090Z,100.00
2023-03-17T05:26:06.867Z,100.00
2023-03-17T05:31:11.189Z,100.00
2023-03-17T05:36:14.782Z,100.00
2023-03-17T05:41:18.016Z,100.00
2023-03-17T05:46:21.048Z,100.00
2023-03-17T05:51:24.104Z,100.00
2023-03-17T05:56:33.631Z,100.00
2023-03-17T06:01:37.589Z,100.00
2023-03-17T06:06:40.592Z,100.00
2023-03-17T06:11:44.226Z,100.00
2023-03-17T06:16:47.225Z,100.00
2023-03-17T06:21:50.637Z,100.00
2023-03-17T06:26:53.544Z,100.00
2023-03-17T06:31:58.158Z,100.00
2023-03-17T06:37:05.192Z,100.00
2023-03-17T06:42:08.988Z,100.00
2023-03-17T06:47:12.225Z,100.00
2023-03-17T06:52:15.128Z,100.00
2023-03-17T06:57:18.034Z,100.00
2023-03-17T07:02:20.941Z,100.00
2023-03-17T07:07:25.079Z,100.00
2023-03-17T07:12:29.368Z,100.00
2023-03-17T07:17:32.312Z,100.00
2023-03-17T07:22:35.843Z,100.00
2023-03-17T07:27:39.040Z,99.45
2023-03-17T07:32:42.564Z,93.98
2023-03-17T07:37:45.714Z,87.20
2023-03-17T07:42:48.774Z,78.87
2023-03-17T07:47:51.982Z,70.21
2023-03-17T07:52:54.891Z,63.36
2023-03-17T07:57:58.390Z,65.36
2023-03-17T08:03:09.825Z,67.87
2023-03-17T08:08:14.354Z,68.13
2023-03-17T08:13:18.283Z,65.37
2023-03-17T08:18:21.221Z,64.41
2023-03-17T08:23:25.639Z,60.74
2023-03-17T08:28:29.316Z,57.51
2023-03-17T08:33:32.589Z,51.89
2023-03-17T08:38:37.512Z,45.65
2023-03-17T08:43:42.807Z,40.38
2023-03-17T08:48:48.327Z,37.71
2023-03-17T08:53:52.915Z,37.69
2023-03-17T08:58:56.505Z,37.59
2023-03-17T09:03:59.411Z,38.78
2023-03-17T09:09:02.314Z,38.97
2023-03-17T09:14:05.934Z,38.28
2023-03-17T09:19:08.938Z,37.89
2023-03-17T09:24:12.677Z,37.85
2023-03-17T09:29:15.564Z,37.27
2023-03-17T09:34:18.887Z,34.69
2023-03-17T09:39:24.353Z,33.25
2023-03-17T09:44:27.660Z,34.02
2023-03-17T09:49:57.606Z,36.15
2023-03-17T09:55:03.520Z,38.16
2023-03-17T10:00:19.197Z,39.03
2023-03-17T10:05:23.979Z,38.00
2023-03-17T10:10:42.697Z,36.77
2023-03-17T10:16:01.694Z,35.56
2023-03-17T10:21:07.896Z,34.70
2023-03-17T10:26:34.830Z,34.47
2023-03-17T10:31:39.561Z,33.55
2023-03-17T10:36:47.140Z,32.57
2023-03-17T10:42:07.827Z,32.18
2023-03-17T10:47:24.746Z,32.00
2023-03-17T10:52:31.138Z,31.43
2023-03-17T10:57:39.160Z,31.02
2023-03-17T11:02:57.519Z,31.60
2023-03-17T11:08:11.484Z,31.98
2023-03-17T11:13:17.772Z,32.59
2023-03-17T11:18:32.866Z,33.38
2023-03-17T11:23:57.381Z,34.09
2023-03-17T11:29:06.836Z,34.01
2023-03-17T11:34:21.012Z,34.26
2023-03-17T11:39:27.515Z,35.04
2023-03-17T11:44:57.017Z,35.15
2023-03-17T11:50:26.967Z,35.07
2023-03-17T11:56:14.202Z,34.88
2023-03-17T12:01:23.967Z,33.15
2023-03-17T12:06:36.695Z,31.93
2023-03-17T12:11:44.924Z,29.67
2023-03-17T12:16:52.655Z,29.55
2023-03-17T12:22:01.596Z,29.51
2023-03-17T12:27:13.812Z,30.18
2023-03-17T12:32:21.973Z,30.82
2023-03-17T12:37:27.817Z,30.85
2023-03-17T12:42:38.585Z,30.56
2023-03-17T12:47:58.511Z,30.59
2023-03-17T12:53:24.951Z,30.09
2023-03-17T12:58:41.649Z,28.31
2023-03-17T13:04:15.535Z,26.99
2023-03-17T13:09:37.468Z,27.55
2023-03-17T13:14:46.513Z,28.07
2023-03-17T13:19:57.512Z,27.60
2023-03-17T13:25:30.696Z,27.27
2023-03-17T13:30:37.082Z,27.59
2023-03-17T13:35:48.976Z,28.35
2023-03-17T13:41:14.053Z,28.08
2023-03-17T13:46:26.804Z,27.48
2023-03-17T13:51:34.093Z,26.38
2023-03-17T13:56:40.078Z,26.85
2023-03-17T14:01:58.098Z,27.98
2023-03-17T14:07:09.444Z,29.33
2023-03-17T14:12:26.169Z,30.06
2023-03-17T14:17:39.721Z,30.83
2023-03-17T14:22:45.912Z,32.23
2023-03-17T14:27:53.321Z,32.88
2023-03-17T14:33:04.950Z,32.55
2023-03-17T14:38:29.019Z,32.53
2023-03-17T14:43:34.684Z,32.50
2023-03-17T14:48:41.036Z,33.13
2023-03-17T14:53:46.715Z,33.72
2023-03-17T14:58:52.442Z,34.50
2023-03-17T15:04:08.523Z,35.56
2023-03-17T15:09:28.838Z,36.23
2023-03-17T15:14:40.154Z,37.37
2023-03-17T15:19:46.467Z,38.77
2023-03-17T15:25:02.035Z,40.37
2023-03-17T15:30:06.048Z,41.69
2023-03-17T15:35:13.442Z,42.78
2023-03-17T15:40:16.869Z,43.88
2023-03-17T15:45:19.782Z,45.09
2023-03-17T15:50:32.770Z,46.22
2023-03-17T15:55:35.935Z,47.25
2023-03-17T16:00:39.244Z,48.23
2023-03-17T16:05:43.594Z,48.96
2023-03-17T16:10:47.616Z,49.49
2023-03-17T16:15:57.437Z,49.99
2023-03-17T16:21:02.922Z,50.90
2023-03-17T16:26:14.863Z,51.68
2023-03-17T16:31:26.674Z,52.58
2023-03-17T16:36:29.781Z,53.13
2023-03-17T16:41:35.176Z,53.77
2023-03-17T16:46:40.237Z,54.13
2023-03-17T16:51:44.135Z,54.28
2023-03-17T16:56:47.360Z,54.83
2023-03-17T17:01:50.546Z,55.16
2023-03-17T17:06:54.172Z,55.43
2023-03-17T17:11:58.609Z,55.58
2023-03-17T17:17:01.620Z,55.86
2023-03-17T17:22:04.534Z,56.03
2023-03-17T17:27:07.742Z,56.29
2023-03-17T17:32:10.947Z,56.39
2023-03-17T17:37:13.851Z,56.50
2023-03-17T17:42:17.681Z,56.70
2023-03-17T17:47:20.683Z,56.76
2023-03-17T17:52:23.691Z,57.04
2023-03-17T17:57:28.135Z,57.14
2023-03-17T18:02:31.134Z,57.46
2023-03-17T18:07:34.044Z,57.87
2023-03-17T18:12:37.052Z,58.18
2023-03-17T18:17:40.055Z,58.62
2023-03-17T18:22:43.976Z,59.04
2023-03-17T18:27:48.028Z,59.22
2023-03-17T18:32:54.969Z,59.53
2023-03-17T18:37:58.630Z,60.02
2023-03-17T18:43:01.745Z,60.17
2023-03-17T18:48:04.644Z,60.35
2023-03-17T18:53:07.475Z,60.40
2023-03-17T18:58:10.451Z,60.34
2023-03-17T19:03:13.398Z,60.43
2023-03-17T19:08:18.101Z,60.45
2023-03-17T19:13:21.417Z,60.58
2023-03-17T19:18:24.631Z,60.86
2023-03-17T19:23:27.527Z,60.52
2023-03-17T19:28:30.843Z,60.72
2023-03-17T19:33:33.952Z,60.73
2023-03-17T19:38:37.581Z,60.40
2023-03-17T19:43:41.788Z,60.40
2023-03-17T19:48:44.817Z,60.46
2023-03-17T19:53:47.719Z,60.60
2023-03-17T19:58:51.415Z,60.83
2023-03-17T20:03:54.244Z,61.07
2023-03-17T20:08:57.149Z,61.23
2023-03-17T20:14:01.701Z,61.48
2023-03-17T20:19:05.435Z,61.62
2023-03-17T20:24:11.092Z,62.03
2023-03-17T20:29:14.603Z,61.91
2023-03-17T20:34:17.714Z,62.07
2023-03-17T20:39:20.619Z,62.05
2023-03-17T20:44:24.173Z,62.00
2023-03-17T20:49:27.962Z,61.98
2023-03-17T20:54:30.878Z,61.71
2023-03-17T20:59:34.693Z,61.74
2023-03-17T21:04:37.824Z,61.84
2023-03-17T21:09:44.186Z,61.72
2023-03-17T21:14:52.307Z,61.53
2023-03-17T21:19:56.854Z,61.48
2023-03-17T21:25:01.253Z,61.36
2023-03-17T21:30:08.996Z,61.36
2023-03-17T21:35:11.935Z,61.43
2023-03-17T21:40:15.839Z,61.15
2023-03-17T21:45:18.946Z,60.87
2023-03-17T21:50:21.919Z,61.01
2023-03-17T21:55:25.224Z,60.77
2023-03-17T22:00:35.944Z,60.61
2023-03-17T22:05:47.362Z,60.23
2023-03-17T22:10:50.261Z,60.00
2023-03-17T22:15:53.168Z,60.14
2023-03-17T22:20:57.880Z,60.15
2023-03-17T22:26:00.823Z,60.06
2023-03-17T22:31:22.222Z,60.11
2023-03-17T22:36:26.807Z,60.12
2023-03-17T22:41:31.094Z,60.05
2023-03-17T22:46:34.352Z,60.13
2023-03-17T22:51:37.499Z,60.11
2023-03-17T22:56:40.541Z,60.47
2023-03-17T23:01:43.375Z,60.28
2023-03-17T23:06:46.683Z,60.31
2023-03-17T23:11:49.591Z,60.36
2023-03-17T23:16:52.563Z,60.48
2023-03-17T23:21:56.627Z,60.43
2023-03-17T23:26:59.530Z,60.33
2023-03-17T23:32:03.051Z,60.58
2023-03-17T23:37:06.153Z,60.50
2023-03-17T23:42:09.160Z,60.09
2023-03-17T23:47:12.571Z,60.35
2023-03-17T23:52:15.793Z,60.25
2023-03-17T23:57:19.612Z,60.36
